Hiseville, Kentucky
Current Conditions -  °F | °C
As of 12:15 PM on Saturday 25 Oct 2014 (Local Time) from KGLW Reporting Station
Overcast Overcast  
Wind Chill: 65°   Ceiling: 3700
Heat Index: 65°   Visibility: 10mi
Dew Point: 54°   Wind: 3mph
Humidity: 67%   Direction: 210°SSW
Pressure: 30.05"   Gusts: NA
Location:  37.1°N, 85.81°W
Report Text: KGLW 251715Z AUTO 21003KT 10SM BKN037 OVC043 19/12 A3005 RMK AO2 T01860124
Loading
Personal Weather Stations






























Interactive Weather Map
Tropical Storm Tracking
New forecast layout! Learn more

10-Day Weather Forecast

Advertisements
Track Severe Weather on mobile